Terminal Aerodrome Forecast
Issued by NWS Sterling, VA

Current Version | Previous Version | Graphics & Text | Print | Product List | Glossary On
Versions: 1 2 3 4 5 6 7 8 9 10 11 12 13 14 15 16 17
000
FTUS41 KLWX 221124
TAFMRB
TAF
KMRB 221124Z 2212/2312 00000KT P6SM FEW050 SCT130
     FM221500 28006KT P6SM FEW050 SCT150
     FM221700 27008KT P6SM SCT050 BKN070
     FM222100 23007KT P6SM VCTS BKN050CB
     FM230000 25004KT P6SM SCT050 BKN150
     FM230600 24004KT 6SM SHRA SCT050 BKN120
     FM230900 22005KT 3SM SHRA SCT025 OVC040=

USA.gov is the U.S. government's official web portal to all federal, state and local government web resources and services.